sensor_id;sensor_type;location;lat;lon;timestamp;temperature;humidity
7232;DHT22;3657;49.630;11.018;2023-05-24T00:00:53;16.80;76.10
7232;DHT22;3657;49.630;11.018;2023-05-24T00:03:20;16.70;75.70
7232;DHT22;3657;49.630;11.018;2023-05-24T00:05:46;16.70;76.40
7232;DHT22;3657;49.630;11.018;2023-05-24T00:08:13;16.80;76.40
7232;DHT22;3657;49.630;11.018;2023-05-24T00:10:41;16.90;76.20
7232;DHT22;3657;49.630;11.018;2023-05-24T00:13:08;16.90;76.20
7232;DHT22;3657;49.630;11.018;2023-05-24T00:15:35;16.90;76.10
7232;DHT22;3657;49.630;11.018;2023-05-24T00:18:02;16.90;76.00
7232;DHT22;3657;49.630;11.018;2023-05-24T00:20:29;16.90;75.70
7232;DHT22;3657;49.630;11.018;2023-05-24T00:22:56;16.90;76.10
7232;DHT22;3657;49.630;11.018;2023-05-24T00:25:23;16.90;76.00
7232;DHT22;3657;49.630;11.018;2023-05-24T00:27:51;16.80;75.80
7232;DHT22;3657;49.630;11.018;2023-05-24T00:30:17;16.90;75.90
7232;DHT22;3657;49.630;11.018;2023-05-24T00:32:44;16.80;76.00
7232;DHT22;3657;49.630;11.018;2023-05-24T00:35:11;16.80;75.90
7232;DHT22;3657;49.630;11.018;2023-05-24T00:37:39;16.70;76.00
7232;DHT22;3657;49.630;11.018;2023-05-24T00:40:09;16.80;76.00
7232;DHT22;3657;49.630;11.018;2023-05-24T00:42:36;16.70;76.00
7232;DHT22;3657;49.630;11.018;2023-05-24T00:45:06;16.70;75.90
7232;DHT22;3657;49.630;11.018;2023-05-24T00:47:33;16.60;75.90
7232;DHT22;3657;49.630;11.018;2023-05-24T00:49:59;16.50;76.30
7232;DHT22;3657;49.630;11.018;2023-05-24T00:52:26;16.40;76.20
7232;DHT22;3657;49.630;11.018;2023-05-24T00:54:53;16.50;76.30
7232;DHT22;3657;49.630;11.018;2023-05-24T00:57:20;16.50;76.10
7232;DHT22;3657;49.630;11.018;2023-05-24T00:59:48;16.50;76.00
7232;DHT22;3657;49.630;11.018;2023-05-24T01:02:16;16.60;76.00
7232;DHT22;3657;49.630;11.018;2023-05-24T01:04:43;16.60;75.90
7232;DHT22;3657;49.630;11.018;2023-05-24T01:07:22;16.50;76.00
7232;DHT22;3657;49.630;11.018;2023-05-24T01:09:58;16.50;75.90
7232;DHT22;3657;49.630;11.018;2023-05-24T01:12:31;16.50;75.90
7232;DHT22;3657;49.630;11.018;2023-05-24T01:15:06;16.50;75.80
7232;DHT22;3657;49.630;11.018;2023-05-24T01:17:43;16.50;75.90
7232;DHT22;3657;49.630;11.018;2023-05-24T01:20:14;16.40;75.80
7232;DHT22;3657;49.630;11.018;2023-05-24T01:23:06;16.40;75.90
7232;DHT22;3657;49.630;11.018;2023-05-24T01:25:45;16.40;75.90
7232;DHT22;3657;49.630;11.018;2023-05-24T01:28:16;16.30;75.90
7232;DHT22;3657;49.630;11.018;2023-05-24T01:30:44;16.30;75.90
7232;DHT22;3657;49.630;11.018;2023-05-24T01:33:11;16.30;76.20
7232;DHT22;3657;49.630;11.018;2023-05-24T01:35:38;16.40;75.90
7232;DHT22;3657;49.630;11.018;2023-05-24T01:38:06;16.30;75.70
7232;DHT22;3657;49.630;11.018;2023-05-24T01:40:33;16.30;75.70
7232;DHT22;3657;49.630;11.018;2023-05-24T01:43:03;16.30;75.80
7232;DHT22;3657;49.630;11.018;2023-05-24T01:45:36;16.30;75.80
7232;DHT22;3657;49.630;11.018;2023-05-24T01:48:10;16.30;75.70
7232;DHT22;3657;49.630;11.018;2023-05-24T01:50:47;16.30;75.80
7232;DHT22;3657;49.630;11.018;2023-05-24T01:53:17;16.30;75.70
7232;DHT22;3657;49.630;11.018;2023-05-24T01:55:47;16.30;75.70
7232;DHT22;3657;49.630;11.018;2023-05-24T01:58:15;16.30;75.80
7232;DHT22;3657;49.630;11.018;2023-05-24T02:00:45;16.30;75.80
7232;DHT22;3657;49.630;11.018;2023-05-24T02:03:13;16.20;75.50
7232;DHT22;3657;49.630;11.018;2023-05-24T02:05:40;16.20;75.80
7232;DHT22;3657;49.630;11.018;2023-05-24T02:08:08;16.20;75.70
7232;DHT22;3657;49.630;11.018;2023-05-24T02:10:36;16.20;75.80
7232;DHT22;3657;49.630;11.018;2023-05-24T02:13:03;16.20;75.70
7232;DHT22;3657;49.630;11.018;2023-05-24T02:15:30;16.20;75.70
7232;DHT22;3657;49.630;11.018;2023-05-24T02:17:58;16.10;75.70
7232;DHT22;3657;49.630;11.018;2023-05-24T02:20:26;16.10;75.80
7232;DHT22;3657;49.630;11.018;2023-05-24T02:22:55;16.10;75.80
7232;DHT22;3657;49.630;11.018;2023-05-24T02:25:22;16.00;75.70
7232;DHT22;3657;49.630;11.018;2023-05-24T02:27:48;16.00;75.80
7232;DHT22;3657;49.630;11.018;2023-05-24T02:30:15;16.00;75.90
7232;DHT22;3657;49.630;11.018;2023-05-24T02:32:42;15.90;75.70
7232;DHT22;3657;49.630;11.018;2023-05-24T02:35:10;15.90;75.90
7232;DHT22;3657;49.630;11.018;2023-05-24T02:37:37;15.90;75.90
7232;DHT22;3657;49.630;11.018;2023-05-24T02:40:04;15.90;76.00
7232;DHT22;3657;49.630;11.018;2023-05-24T02:42:32;15.80;76.10
7232;DHT22;3657;49.630;11.018;2023-05-24T02:44:59;15.80;76.00
7232;DHT22;3657;49.630;11.018;2023-05-24T02:47:25;15.80;76.10
7232;DHT22;3657;49.630;11.018;2023-05-24T02:49:52;15.80;76.10
7232;DHT22;3657;49.630;11.018;2023-05-24T02:52:20;15.70;75.90
7232;DHT22;3657;49.630;11.018;2023-05-24T02:54:47;15.70;75.80
7232;DHT22;3657;49.630;11.018;2023-05-24T02:57:14;15.70;76.00
7232;DHT22;3657;49.630;11.018;2023-05-24T02:59:41;15.70;76.00
7232;DHT22;3657;49.630;11.018;2023-05-24T03:02:08;15.70;76.10
7232;DHT22;3657;49.630;11.018;2023-05-24T03:04:38;15.60;76.00
7232;DHT22;3657;49.630;11.018;2023-05-24T03:07:04;15.60;76.40
7232;DHT22;3657;49.630;11.018;2023-05-24T03:09:32;15.60;76.30
7232;DHT22;3657;49.630;11.018;2023-05-24T03:11:59;15.50;76.90
7232;DHT22;3657;49.630;11.018;2023-05-24T03:14:26;15.40;76.40
7232;DHT22;3657;49.630;11.018;2023-05-24T03:16:52;15.50;76.40
7232;DHT22;3657;49.630;11.018;2023-05-24T03:19:19;15.50;76.40
7232;DHT22;3657;49.630;11.018;2023-05-24T03:21:46;15.50;76.40
7232;DHT22;3657;49.630;11.018;2023-05-24T03:24:13;15.50;76.50
7232;DHT22;3657;49.630;11.018;2023-05-24T03:26:41;15.40;76.30
7232;DHT22;3657;49.630;11.018;2023-05-24T03:29:07;15.40;76.60
7232;DHT22;3657;49.630;11.018;2023-05-24T03:31:34;15.40;76.40
7232;DHT22;3657;49.630;11.018;2023-05-24T03:34:01;15.40;76.40
7232;DHT22;3657;49.630;11.018;2023-05-24T03:36:27;15.30;76.40
7232;DHT22;3657;49.630;11.018;2023-05-24T03:38:54;15.30;76.40
7232;DHT22;3657;49.630;11.018;2023-05-24T03:41:22;15.30;76.40
7232;DHT22;3657;49.630;11.018;2023-05-24T03:43:50;15.30;76.80
7232;DHT22;3657;49.630;11.018;2023-05-24T03:46:17;15.20;77.00
7232;DHT22;3657;49.630;11.018;2023-05-24T03:48:44;15.20;76.80
7232;DHT22;3657;49.630;11.018;2023-05-24T03:51:10;15.20;77.20
7232;DHT22;3657;49.630;11.018;2023-05-24T03:53:37;15.00;77.60
7232;DHT22;3657;49.630;11.018;2023-05-24T03:56:04;15.00;77.20
7232;DHT22;3657;49.630;11.018;2023-05-24T03:58:31;15.00;77.00
7232;DHT22;3657;49.630;11.018;2023-05-24T04:00:59;15.00;76.80
7232;DHT22;3657;49.630;11.018;2023-05-24T04:03:26;15.10;77.00
7232;DHT22;3657;49.630;11.018;2023-05-24T04:05:53;15.10;76.80
7232;DHT22;3657;49.630;11.018;2023-05-24T04:08:20;15.10;76.70
7232;DHT22;3657;49.630;11.018;2023-05-24T04:10:47;15.10;77.10
7232;DHT22;3657;49.630;11.018;2023-05-24T04:13:13;15.10;76.80
7232;DHT22;3657;49.630;11.018;2023-05-24T04:15:40;15.10;76.60
7232;DHT22;3657;49.630;11.018;2023-05-24T04:18:09;15.10;76.90
7232;DHT22;3657;49.630;11.018;2023-05-24T04:20:36;15.10;76.60
7232;DHT22;3657;49.630;11.018;2023-05-24T04:23:03;15.00;77.00
7232;DHT22;3657;49.630;11.018;2023-05-24T04:25:29;14.90;76.90
7232;DHT22;3657;49.630;11.018;2023-05-24T04:27:57;14.90;76.90
7232;DHT22;3657;49.630;11.018;2023-05-24T04:30:24;14.90;76.80
7232;DHT22;3657;49.630;11.018;2023-05-24T04:32:54;14.90;76.70
7232;DHT22;3657;49.630;11.018;2023-05-24T04:35:22;14.90;76.70
7232;DHT22;3657;49.630;11.018;2023-05-24T04:37:49;15.00;76.70
7232;DHT22;3657;49.630;11.018;2023-05-24T04:40:16;14.90;75.70
7232;DHT22;3657;49.630;11.018;2023-05-24T04:42:45;14.80;75.20
7232;DHT22;3657;49.630;11.018;2023-05-24T04:45:12;14.80;75.20
7232;DHT22;3657;49.630;11.018;2023-05-24T04:47:39;14.70;75.60
7232;DHT22;3657;49.630;11.018;2023-05-24T04:50:06;14.70;76.20
7232;DHT22;3657;49.630;11.018;2023-05-24T04:52:35;14.70;76.30
7232;DHT22;3657;49.630;11.018;2023-05-24T04:55:01;14.80;76.20
7232;DHT22;3657;49.630;11.018;2023-05-24T04:57:28;14.90;76.00
7232;DHT22;3657;49.630;11.018;2023-05-24T04:59:55;14.90;76.20
7232;DHT22;3657;49.630;11.018;2023-05-24T05:02:22;14.90;76.20
7232;DHT22;3657;49.630;11.018;2023-05-24T05:04:50;15.00;76.10
7232;DHT22;3657;49.630;11.018;2023-05-24T05:07:17;14.90;76.10
7232;DHT22;3657;49.630;11.018;2023-05-24T05:09:45;14.90;76.30
7232;DHT22;3657;49.630;11.018;2023-05-24T05:12:12;14.80;76.00
7232;DHT22;3657;49.630;11.018;2023-05-24T05:14:38;14.80;76.20
7232;DHT22;3657;49.630;11.018;2023-05-24T05:17:05;14.80;76.40
7232;DHT22;3657;49.630;11.018;2023-05-24T05:19:32;14.80;76.20
7232;DHT22;3657;49.630;11.018;2023-05-24T05:21:58;14.70;75.10
7232;DHT22;3657;49.630;11.018;2023-05-24T05:24:25;14.70;75.90
7232;DHT22;3657;49.630;11.018;2023-05-24T05:26:54;14.70;75.50
7232;DHT22;3657;49.630;11.018;2023-05-24T05:29:20;14.70;75.20
7232;DHT22;3657;49.630;11.018;2023-05-24T05:31:47;14.50;74.80
7232;DHT22;3657;49.630;11.018;2023-05-24T05:34:14;14.50;75.90
7232;DHT22;3657;49.630;11.018;2023-05-24T05:36:40;14.40;74.30
7232;DHT22;3657;49.630;11.018;2023-05-24T05:39:07;14.40;76.00
7232;DHT22;3657;49.630;11.018;2023-05-24T05:41:36;14.50;75.90
7232;DHT22;3657;49.630;11.018;2023-05-24T05:44:04;14.50;75.00
7232;DHT22;3657;49.630;11.018;2023-05-24T05:46:31;14.50;75.50
7232;DHT22;3657;49.630;11.018;2023-05-24T05:48:58;14.40;75.00
7232;DHT22;3657;49.630;11.018;2023-05-24T05:51:24;14.50;75.20
7232;DHT22;3657;49.630;11.018;2023-05-24T05:53:51;14.50;74.60
7232;DHT22;3657;49.630;11.018;2023-05-24T05:56:18;14.50;74.50
7232;DHT22;3657;49.630;11.018;2023-05-24T05:58:44;14.40;73.30
7232;DHT22;3657;49.630;11.018;2023-05-24T06:01:14;14.40;75.20
7232;DHT22;3657;49.630;11.018;2023-05-24T06:03:41;14.30;74.90
7232;DHT22;3657;49.630;11.018;2023-05-24T06:06:07;14.20;74.20
7232;DHT22;3657;49.630;11.018;2023-05-24T06:08:34;14.20;75.80
7232;DHT22;3657;49.630;11.018;2023-05-24T06:11:01;14.30;75.30
7232;DHT22;3657;49.630;11.018;2023-05-24T06:13:28;14.40;75.90
7232;DHT22;3657;49.630;11.018;2023-05-24T06:15:55;14.40;74.70
7232;DHT22;3657;49.630;11.018;2023-05-24T06:18:24;14.40;75.70
7232;DHT22;3657;49.630;11.018;2023-05-24T06:20:52;14.40;75.20
7232;DHT22;3657;49.630;11.018;2023-05-24T06:23:18;14.40;75.00
7232;DHT22;3657;49.630;11.018;2023-05-24T06:25:46;14.40;75.10
7232;DHT22;3657;49.630;11.018;2023-05-24T06:28:12;14.40;74.90
7232;DHT22;3657;49.630;11.018;2023-05-24T06:30:39;14.50;75.90
7232;DHT22;3657;49.630;11.018;2023-05-24T06:33:06;14.50;75.60
7232;DHT22;3657;49.630;11.018;2023-05-24T06:35:34;14.50;75.80
7232;DHT22;3657;49.630;11.018;2023-05-24T06:38:00;14.60;75.80
7232;DHT22;3657;49.630;11.018;2023-05-24T06:40:27;14.50;75.80
7232;DHT22;3657;49.630;11.018;2023-05-24T06:42:54;14.60;75.80
7232;DHT22;3657;49.630;11.018;2023-05-24T06:45:23;14.50;76.40
7232;DHT22;3657;49.630;11.018;2023-05-24T06:47:49;14.50;76.40
7232;DHT22;3657;49.630;11.018;2023-05-24T06:50:16;14.50;76.40
7232;DHT22;3657;49.630;11.018;2023-05-24T06:52:44;14.50;76.40
7232;DHT22;3657;49.630;11.018;2023-05-24T06:55:11;14.70;76.20
7232;DHT22;3657;49.630;11.018;2023-05-24T06:57:38;14.70;75.80
7232;DHT22;3657;49.630;11.018;2023-05-24T07:00:06;14.80;75.90
7232;DHT22;3657;49.630;11.018;2023-05-24T07:02:36;14.90;75.50
7232;DHT22;3657;49.630;11.018;2023-05-24T07:05:03;14.90;75.30
7232;DHT22;3657;49.630;11.018;2023-05-24T07:07:30;14.90;75.10
7232;DHT22;3657;49.630;11.018;2023-05-24T07:09:59;14.80;75.10
7232;DHT22;3657;49.630;11.018;2023-05-24T07:12:26;14.90;74.80
7232;DHT22;3657;49.630;11.018;2023-05-24T07:14:52;14.70;75.00
7232;DHT22;3657;49.630;11.018;2023-05-24T07:17:20;14.80;76.00
7232;DHT22;3657;49.630;11.018;2023-05-24T07:19:47;14.90;74.80
7232;DHT22;3657;49.630;11.018;2023-05-24T07:22:13;14.90;76.00
7232;DHT22;3657;49.630;11.018;2023-05-24T07:24:40;14.90;75.20
7232;DHT22;3657;49.630;11.018;2023-05-24T07:27:09;15.00;75.80
7232;DHT22;3657;49.630;11.018;2023-05-24T07:29:36;14.90;74.80
7232;DHT22;3657;49.630;11.018;2023-05-24T07:32:03;14.90;75.90
7232;DHT22;3657;49.630;11.018;2023-05-24T07:34:30;14.90;75.00
7232;DHT22;3657;49.630;11.018;2023-05-24T07:36:56;14.90;75.90
7232;DHT22;3657;49.630;11.018;2023-05-24T07:39:25;14.90;75.90
7232;DHT22;3657;49.630;11.018;2023-05-24T07:41:52;15.00;76.00
7232;DHT22;3657;49.630;11.018;2023-05-24T07:44:20;15.00;76.00
7232;DHT22;3657;49.630;11.018;2023-05-24T07:46:48;14.90;76.20
7232;DHT22;3657;49.630;11.018;2023-05-24T07:49:15;15.00;76.10
7232;DHT22;3657;49.630;11.018;2023-05-24T07:51:41;15.00;76.20
7232;DHT22;3657;49.630;11.018;2023-05-24T07:54:08;15.00;76.20
7232;DHT22;3657;49.630;11.018;2023-05-24T07:56:35;15.00;76.20
7232;DHT22;3657;49.630;11.018;2023-05-24T07:59:02;15.00;76.40
7232;DHT22;3657;49.630;11.018;2023-05-24T08:01:31;15.00;76.30
7232;DHT22;3657;49.630;11.018;2023-05-24T08:03:58;14.90;76.20
7232;DHT22;3657;49.630;11.018;2023-05-24T08:06:25;14.90;76.20
7232;DHT22;3657;49.630;11.018;2023-05-24T08:08:52;14.90;76.10
7232;DHT22;3657;49.630;11.018;2023-05-24T08:11:19;15.00;76.20
7232;DHT22;3657;49.630;11.018;2023-05-24T08:13:46;15.00;76.10
7232;DHT22;3657;49.630;11.018;2023-05-24T08:16:12;15.00;76.00
7232;DHT22;3657;49.630;11.018;2023-05-24T08:18:40;15.00;76.20
7232;DHT22;3657;49.630;11.018;2023-05-24T08:21:07;15.00;76.40
7232;DHT22;3657;49.630;11.018;2023-05-24T08:23:34;15.00;76.30
7232;DHT22;3657;49.630;11.018;2023-05-24T08:26:01;14.80;74.80
7232;DHT22;3657;49.630;11.018;2023-05-24T08:28:27;14.90;76.30
7232;DHT22;3657;49.630;11.018;2023-05-24T08:30:54;14.90;75.80
7232;DHT22;3657;49.630;11.018;2023-05-24T08:33:21;14.90;75.90
7232;DHT22;3657;49.630;11.018;2023-05-24T08:35:50;15.00;76.00
7232;DHT22;3657;49.630;11.018;2023-05-24T08:38:16;15.00;75.80
7232;DHT22;3657;49.630;11.018;2023-05-24T08:40:43;14.90;75.10
7232;DHT22;3657;49.630;11.018;2023-05-24T08:43:11;14.90;75.80
7232;DHT22;3657;49.630;11.018;2023-05-24T08:45:38;15.00;76.00
7232;DHT22;3657;49.630;11.018;2023-05-24T08:48:06;15.00;75.90
7232;DHT22;3657;49.630;11.018;2023-05-24T08:50:33;15.00;75.60
7232;DHT22;3657;49.630;11.018;2023-05-24T08:53:01;15.00;74.50
7232;DHT22;3657;49.630;11.018;2023-05-24T08:55:31;15.00;75.90
7232;DHT22;3657;49.630;11.018;2023-05-24T08:57:58;15.00;76.10
7232;DHT22;3657;49.630;11.018;2023-05-24T09:00:26;15.00;75.00
7232;DHT22;3657;49.630;11.018;2023-05-24T09:02:53;14.90;75.70
7232;DHT22;3657;49.630;11.018;2023-05-24T09:05:19;14.80;75.10
7232;DHT22;3657;49.630;11.018;2023-05-24T09:07:48;14.80;75.00
7232;DHT22;3657;49.630;11.018;2023-05-24T09:10:19;14.80;76.00
7232;DHT22;3657;49.630;11.018;2023-05-24T09:12:48;14.90;76.20
7232;DHT22;3657;49.630;11.018;2023-05-24T09:15:17;15.00;74.70
7232;DHT22;3657;49.630;11.018;2023-05-24T09:17:43;14.90;75.70
7232;DHT22;3657;49.630;11.018;2023-05-24T09:20:11;15.00;76.00
7232;DHT22;3657;49.630;11.018;2023-05-24T09:22:41;15.00;75.40
7232;DHT22;3657;49.630;11.018;2023-05-24T09:25:09;15.00;75.00
7232;DHT22;3657;49.630;11.018;2023-05-24T09:27:37;15.00;75.80
7232;DHT22;3657;49.630;11.018;2023-05-24T09:30:08;15.00;74.10
7232;DHT22;3657;49.630;11.018;2023-05-24T09:32:34;15.00;75.90
7232;DHT22;3657;49.630;11.018;2023-05-24T09:35:01;15.10;76.00
7232;DHT22;3657;49.630;11.018;2023-05-24T09:37:28;15.20;75.90
7232;DHT22;3657;49.630;11.018;2023-05-24T09:39:55;15.30;75.90
7232;DHT22;3657;49.630;11.018;2023-05-24T09:42:24;15.50;75.70
7232;DHT22;3657;49.630;11.018;2023-05-24T09:44:59;15.50;75.40
7232;DHT22;3657;49.630;11.018;2023-05-24T09:47:30;15.60;75.50
7232;DHT22;3657;49.630;11.018;2023-05-24T09:49:57;15.70;75.60
7232;DHT22;3657;49.630;11.018;2023-05-24T09:52:24;15.70;74.90
7232;DHT22;3657;49.630;11.018;2023-05-24T09:54:51;15.80;75.30
7232;DHT22;3657;49.630;11.018;2023-05-24T09:57:18;15.90;75.20
7232;DHT22;3657;49.630;11.018;2023-05-24T09:59:46;16.00;75.20
7232;DHT22;3657;49.630;11.018;2023-05-24T10:02:15;16.20;75.20
7232;DHT22;3657;49.630;11.018;2023-05-24T10:04:45;16.30;74.90
7232;DHT22;3657;49.630;11.018;2023-05-24T10:07:12;16.40;74.80
7232;DHT22;3657;49.630;11.018;2023-05-24T10:09:39;16.50;75.00
7232;DHT22;3657;49.630;11.018;2023-05-24T10:12:07;16.60;73.90
7232;DHT22;3657;49.630;11.018;2023-05-24T10:14:35;16.70;74.90
7232;DHT22;3657;49.630;11.018;2023-05-24T10:17:03;16.80;73.20
7232;DHT22;3657;49.630;11.018;2023-05-24T10:19:32;16.90;73.20
7232;DHT22;3657;49.630;11.018;2023-05-24T10:21:59;17.10;74.40
7232;DHT22;3657;49.630;11.018;2023-05-24T10:24:32;17.40;72.20
7232;DHT22;3657;49.630;11.018;2023-05-24T10:27:00;17.70;72.50
7232;DHT22;3657;49.630;11.018;2023-05-24T10:29:33;17.80;73.40
7232;DHT22;3657;49.630;11.018;2023-05-24T10:32:03;18.10;73.80
7232;DHT22;3657;49.630;11.018;2023-05-24T10:34:32;18.20;73.50
7232;DHT22;3657;49.630;11.018;2023-05-24T10:37:00;18.20;73.70
7232;DHT22;3657;49.630;11.018;2023-05-24T10:39:27;18.00;72.50
7232;DHT22;3657;49.630;11.018;2023-05-24T10:41:55;18.10;73.90
7232;DHT22;3657;49.630;11.018;2023-05-24T10:44:27;18.40;71.50
7232;DHT22;3657;49.630;11.018;2023-05-24T10:47:01;18.80;73.40
7232;DHT22;3657;49.630;11.018;2023-05-24T10:49:28;19.10;69.30
7232;DHT22;3657;49.630;11.018;2023-05-24T10:52:01;19.30;72.70
7232;DHT22;3657;49.630;11.018;2023-05-24T10:54:28;19.40;73.10
7232;DHT22;3657;49.630;11.018;2023-05-24T10:56:54;19.60;72.00
7232;DHT22;3657;49.630;11.018;2023-05-24T10:59:35;19.60;72.70
7232;DHT22;3657;49.630;11.018;2023-05-24T11:02:05;19.60;72.80
7232;DHT22;3657;49.630;11.018;2023-05-24T11:04:37;19.70;73.00
7232;DHT22;3657;49.630;11.018;2023-05-24T11:07:06;20.00;73.50
7232;DHT22;3657;49.630;11.018;2023-05-24T11:09:35;20.20;71.70
7232;DHT22;3657;49.630;11.018;2023-05-24T11:12:05;20.00;67.50
7232;DHT22;3657;49.630;11.018;2023-05-24T11:14:35;19.90;66.40
7232;DHT22;3657;49.630;11.018;2023-05-24T11:17:02;20.00;73.20
7232;DHT22;3657;49.630;11.018;2023-05-24T11:19:32;19.90;71.70
7232;DHT22;3657;49.630;11.018;2023-05-24T11:22:01;20.20;73.30
7232;DHT22;3657;49.630;11.018;2023-05-24T11:24:29;20.40;72.00
7232;DHT22;3657;49.630;11.018;2023-05-24T11:26:56;20.40;72.90
7232;DHT22;3657;49.630;11.018;2023-05-24T11:29:23;20.70;73.50
7232;DHT22;3657;49.630;11.018;2023-05-24T11:31:51;20.50;72.40
7232;DHT22;3657;49.630;11.018;2023-05-24T11:34:18;20.70;73.40
7232;DHT22;3657;49.630;11.018;2023-05-24T11:36:46;20.80;71.00
7232;DHT22;3657;49.630;11.018;2023-05-24T11:39:13;20.90;72.20
7232;DHT22;3657;49.630;11.018;2023-05-24T11:41:41;21.10;72.70
7232;DHT22;3657;49.630;11.018;2023-05-24T11:44:10;21.30;71.70
7232;DHT22;3657;49.630;11.018;2023-05-24T11:46:38;21.20;70.40
7232;DHT22;3657;49.630;11.018;2023-05-24T11:49:04;21.30;72.00
7232;DHT22;3657;49.630;11.018;2023-05-24T11:51:33;21.20;65.00
7232;DHT22;3657;49.630;11.018;2023-05-24T11:54:01;20.90;64.10
7232;DHT22;3657;49.630;11.018;2023-05-24T11:56:29;20.80;65.20
7232;DHT22;3657;49.630;11.018;2023-05-24T11:59:07;21.10;73.30
7232;DHT22;3657;49.630;11.018;2023-05-24T12:01:34;21.00;71.50
7232;DHT22;3657;49.630;11.018;2023-05-24T12:04:04;21.30;66.70
7232;DHT22;3657;49.630;11.018;2023-05-24T12:06:36;20.40;61.70
7232;DHT22;3657;49.630;11.018;2023-05-24T12:09:03;20.20;63.60
7232;DHT22;3657;49.630;11.018;2023-05-24T12:11:33;20.70;73.60
7232;DHT22;3657;49.630;11.018;2023-05-24T12:14:01;21.10;71.90
7232;DHT22;3657;49.630;11.018;2023-05-24T12:16:28;21.50;71.90
7232;DHT22;3657;49.630;11.018;2023-05-24T12:18:57;21.40;66.80
7232;DHT22;3657;49.630;11.018;2023-05-24T12:21:24;21.80;72.40
7232;DHT22;3657;49.630;11.018;2023-05-24T12:23:51;22.10;72.10
7232;DHT22;3657;49.630;11.018;2023-05-24T12:26:18;22.20;71.60
7232;DHT22;3657;49.630;11.018;2023-05-24T12:28:51;21.50;66.00
7232;DHT22;3657;49.630;11.018;2023-05-24T12:31:20;21.30;71.30
7232;DHT22;3657;49.630;11.018;2023-05-24T12:33:47;21.90;72.40
7232;DHT22;3657;49.630;11.018;2023-05-24T12:36:14;22.20;71.70
7232;DHT22;3657;49.630;11.018;2023-05-24T12:38:41;22.60;71.30
7232;DHT22;3657;49.630;11.018;2023-05-24T12:41:09;22.90;70.60
7232;DHT22;3657;49.630;11.018;2023-05-24T12:43:37;22.40;66.50
7232;DHT22;3657;49.630;11.018;2023-05-24T12:46:04;22.40;69.80
7232;DHT22;3657;49.630;11.018;2023-05-24T12:48:32;22.70;68.90
7232;DHT22;3657;49.630;11.018;2023-05-24T12:50:59;23.00;69.20
7232;DHT22;3657;49.630;11.018;2023-05-24T12:53:26;23.30;64.50
7232;DHT22;3657;49.630;11.018;2023-05-24T12:55:53;23.40;70.30
7232;DHT22;3657;49.630;11.018;2023-05-24T12:58:20;23.70;70.00
7232;DHT22;3657;49.630;11.018;2023-05-24T13:00:47;23.80;69.00
7232;DHT22;3657;49.630;11.018;2023-05-24T13:03:16;23.50;66.50
7232;DHT22;3657;49.630;11.018;2023-05-24T13:05:44;23.70;69.60
7232;DHT22;3657;49.630;11.018;2023-05-24T13:08:11;24.00;67.00
7232;DHT22;3657;49.630;11.018;2023-05-24T13:10:39;24.10;68.70
7232;DHT22;3657;49.630;11.018;2023-05-24T13:13:06;24.50;64.50
7232;DHT22;3657;49.630;11.018;2023-05-24T13:15:33;24.00;64.50
7232;DHT22;3657;49.630;11.018;2023-05-24T13:18:00;24.10;66.40
7232;DHT22;3657;49.630;11.018;2023-05-24T13:20:27;23.30;60.00
7232;DHT22;3657;49.630;11.018;2023-05-24T13:22:55;23.50;61.30
7232;DHT22;3657;49.630;11.018;2023-05-24T13:25:21;23.60;66.90
7232;DHT22;3657;49.630;11.018;2023-05-24T13:27:48;23.60;67.30
7232;DHT22;3657;49.630;11.018;2023-05-24T13:30:15;24.00;67.90
7232;DHT22;3657;49.630;11.018;2023-05-24T13:32:42;24.00;63.50
7232;DHT22;3657;49.630;11.018;2023-05-24T13:35:09;24.00;67.10
7232;DHT22;3657;49.630;11.018;2023-05-24T13:37:36;23.60;54.20
7232;DHT22;3657;49.630;11.018;2023-05-24T13:40:06;22.80;65.40
7232;DHT22;3657;49.630;11.018;2023-05-24T13:42:32;23.20;61.50
7232;DHT22;3657;49.630;11.018;2023-05-24T13:44:59;23.10;58.80
7232;DHT22;3657;49.630;11.018;2023-05-24T13:47:27;22.90;64.80
7232;DHT22;3657;49.630;11.018;2023-05-24T13:49:54;23.70;66.60
7232;DHT22;3657;49.630;11.018;2023-05-24T13:52:21;23.90;62.40
7232;DHT22;3657;49.630;11.018;2023-05-24T13:54:48;23.80;66.00
7232;DHT22;3657;49.630;11.018;2023-05-24T13:57:16;24.20;66.10
7232;DHT22;3657;49.630;11.018;2023-05-24T13:59:43;24.30;63.70
7232;DHT22;3657;49.630;11.018;2023-05-24T14:02:10;24.00;58.70
7232;DHT22;3657;49.630;11.018;2023-05-24T14:04:36;24.40;62.00
7232;DHT22;3657;49.630;11.018;2023-05-24T14:07:03;24.60;64.00
7232;DHT22;3657;49.630;11.018;2023-05-24T14:09:32;24.90;65.00
7232;DHT22;3657;49.630;11.018;2023-05-24T14:11:59;25.10;64.10
7232;DHT22;3657;49.630;11.018;2023-05-24T14:14:29;25.20;64.30
7232;DHT22;3657;49.630;11.018;2023-05-24T14:16:55;25.30;63.30
7232;DHT22;3657;49.630;11.018;2023-05-24T14:19:22;25.30;63.60
7232;DHT22;3657;49.630;11.018;2023-05-24T14:21:48;25.40;63.30
7232;DHT22;3657;49.630;11.018;2023-05-24T14:24:15;25.40;61.70
7232;DHT22;3657;49.630;11.018;2023-05-24T14:26:42;25.40;62.90
7232;DHT22;3657;49.630;11.018;2023-05-24T14:29:08;25.30;62.60
7232;DHT22;3657;49.630;11.018;2023-05-24T14:31:36;25.20;59.80
7232;DHT22;3657;49.630;11.018;2023-05-24T14:34:07;25.20;62.00
7232;DHT22;3657;49.630;11.018;2023-05-24T14:36:35;25.20;62.20
7232;DHT22;3657;49.630;11.018;2023-05-24T14:39:03;25.10;61.80
7232;DHT22;3657;49.630;11.018;2023-05-24T14:41:29;24.80;61.50
7232;DHT22;3657;49.630;11.018;2023-05-24T14:43:56;24.70;61.60
7232;DHT22;3657;49.630;11.018;2023-05-24T14:46:23;24.80;62.50
7232;DHT22;3657;49.630;11.018;2023-05-24T14:48:51;24.90;61.90
7232;DHT22;3657;49.630;11.018;2023-05-24T14:51:18;24.90;61.90
7232;DHT22;3657;49.630;11.018;2023-05-24T14:53:44;24.90;61.90
7232;DHT22;3657;49.630;11.018;2023-05-24T14:56:11;24.90;61.60
7232;DHT22;3657;49.630;11.018;2023-05-24T14:58:39;24.90;61.60
7232;DHT22;3657;49.630;11.018;2023-05-24T15:01:06;24.90;61.50
7232;DHT22;3657;49.630;11.018;2023-05-24T15:03:33;24.80;61.40
7232;DHT22;3657;49.630;11.018;2023-05-24T15:06:02;24.70;60.80
7232;DHT22;3657;49.630;11.018;2023-05-24T15:08:30;24.60;59.00
7232;DHT22;3657;49.630;11.018;2023-05-24T15:10:56;24.50;60.00
7232;DHT22;3657;49.630;11.018;2023-05-24T15:13:23;24.30;60.00
7232;DHT22;3657;49.630;11.018;2023-05-24T15:15:50;24.40;60.70
7232;DHT22;3657;49.630;11.018;2023-05-24T15:18:17;24.40;61.00
7232;DHT22;3657;49.630;11.018;2023-05-24T15:20:44;24.50;60.10
7232;DHT22;3657;49.630;11.018;2023-05-24T15:23:12;24.40;60.20
7232;DHT22;3657;49.630;11.018;2023-05-24T15:25:38;24.40;59.70
7232;DHT22;3657;49.630;11.018;2023-05-24T15:28:07;24.50;60.00
7232;DHT22;3657;49.630;11.018;2023-05-24T15:30:35;24.50;60.30
7232;DHT22;3657;49.630;11.018;2023-05-24T15:33:02;24.50;60.30
7232;DHT22;3657;49.630;11.018;2023-05-24T15:35:28;24.40;60.00
7232;DHT22;3657;49.630;11.018;2023-05-24T15:37:55;24.40;59.80
7232;DHT22;3657;49.630;11.018;2023-05-24T15:40:23;24.40;59.80
7232;DHT22;3657;49.630;11.018;2023-05-24T15:42:50;24.40;59.50
7232;DHT22;3657;49.630;11.018;2023-05-24T15:45:18;24.20;58.40
7232;DHT22;3657;49.630;11.018;2023-05-24T15:47:45;23.90;58.80